Time;durP1;ratioP1;P1;durP2;ratioP2;P2;SDS_P1;SDS_P2;PMS_P1;PMS_P2;Temp;Humidity;BMP_temperature;BMP_pressure;BME280_temperature;BME280_humidity;BME280_pressure;Samples;Min_cycle;Max_cycle;Signal;HPM_P1;HPM_P2
2023/02/25 00:00:09;;;;;;;80.00;50.20;;;;;;;1.45;100.00;100463.06;5032903;28;20049;-76
2023/02/25 00:02:36;;;;;;;78.97;50.63;;;;;;;1.56;100.00;100460.22;5032560;28;20510;-76
2023/02/25 00:05:05;;;;;;;157.63;85.00;;;;;;;1.42;100.00;100458.94;5032270;28;20523;-76
2023/02/25 00:07:33;;;;;;;82.90;51.83;;;;;;;1.24;100.00;100461.63;5032327;28;20057;-76
2023/02/25 00:10:00;;;;;;;84.35;49.28;;;;;;;1.46;100.00;100456.88;5032222;28;20408;-77
2023/02/25 00:12:28;;;;;;;85.82;50.38;;;;;;;1.52;100.00;100454.47;5032422;28;20045;-76
2023/02/25 00:14:55;;;;;;;84.55;50.42;;;;;;;1.45;100.00;100449.97;5032488;28;20049;-76
2023/02/25 00:17:21;;;;;;;78.63;54.17;;;;;;;1.35;100.00;100445.66;5032677;28;20049;-76
2023/02/25 00:19:48;;;;;;;91.60;53.55;;;;;;;1.40;100.00;100436.56;5032044;28;20106;-76
2023/02/25 00:22:15;;;;;;;101.38;54.58;;;;;;;0.93;100.00;100435.03;5032444;28;20041;-76
2023/02/25 00:24:43;;;;;;;98.53;54.10;;;;;;;1.37;100.00;100432.44;5032348;28;20123;-76
2023/02/25 00:27:10;;;;;;;100.85;53.28;;;;;;;1.34;100.00;100425.72;5032358;28;20056;-76
2023/02/25 00:29:37;;;;;;;95.18;52.47;;;;;;;1.19;100.00;100429.84;5032350;28;20497;-76
2023/02/25 00:32:03;;;;;;;137.55;54.63;;;;;;;0.98;100.00;100421.50;5031943;28;20046;-76
2023/02/25 00:34:30;;;;;;;96.60;56.00;;;;;;;1.21;100.00;100424.44;5032173;28;20407;-76
2023/02/25 00:36:57;;;;;;;105.38;57.90;;;;;;;1.13;100.00;100420.00;5032212;28;20103;-77
2023/02/25 00:39:40;;;;;;;98.18;57.85;;;;;;;1.09;100.00;100422.09;5032035;28;20596;-76
2023/02/25 00:42:08;;;;;;;109.53;58.88;;;;;;;1.17;100.00;100417.91;5031961;28;20052;-76
2023/02/25 00:44:35;;;;;;;125.28;64.38;;;;;;;1.10;100.00;100415.88;5032041;28;20096;-76
2023/02/25 00:47:02;;;;;;;135.98;61.90;;;;;;;1.21;100.00;100414.84;5032464;28;20053;-76
2023/02/25 00:49:29;;;;;;;112.57;65.47;;;;;;;1.05;100.00;100412.91;5032217;28;20050;-76
2023/02/25 00:51:56;;;;;;;146.70;74.82;;;;;;;0.97;100.00;100399.78;5035850;28;20131;-76
2023/02/25 00:54:22;;;;;;;132.43;70.68;;;;;;;1.12;100.00;100407.88;5035591;28;20422;-77
2023/02/25 00:56:49;;;;;;;126.50;65.32;;;;;;;0.96;100.00;100407.75;5035594;28;20572;-76
2023/02/25 00:59:17;;;;;;;120.00;61.88;;;;;;;1.11;100.00;100401.81;5035866;28;20104;-76
2023/02/25 01:01:44;;;;;;;117.10;64.70;;;;;;;1.11;100.00;100393.97;5035573;28;20104;-76
2023/02/25 01:04:11;;;;;;;111.30;63.15;;;;;;;1.10;100.00;100383.69;5035440;28;20128;-76
2023/02/25 01:06:38;;;;;;;120.22;68.65;;;;;;;1.20;100.00;100375.72;5035804;28;20057;-76
2023/02/25 01:09:12;;;;;;;114.68;69.53;;;;;;;1.24;100.00;100371.81;5035237;28;20485;-76
2023/02/25 01:11:40;;;;;;;108.70;70.97;;;;;;;1.16;100.00;100366.56;5035946;28;20406;-76
2023/02/25 01:14:10;;;;;;;119.03;66.85;;;;;;;0.96;100.00;100365.91;5035279;28;20481;-76
2023/02/25 01:16:39;;;;;;;92.00;55.70;;;;;;;0.96;100.00;100360.69;5035601;28;20494;-76
2023/02/25 01:19:08;;;;;;;90.93;56.45;;;;;;;0.87;100.00;100360.59;5035564;28;20045;-76
2023/02/25 01:21:38;;;;;;;95.07;56.30;;;;;;;1.03;100.00;100367.78;5035692;28;20056;-76
2023/02/25 01:24:07;;;;;;;87.15;52.85;;;;;;;0.78;100.00;100363.31;5035335;28;20045;-76
2023/02/25 01:26:36;;;;;;;80.13;48.30;;;;;;;0.79;100.00;100362.38;5035371;28;20411;-76
2023/02/25 01:29:06;;;;;;;85.03;53.17;;;;;;;1.09;100.00;100361.09;5035365;28;20045;-76
2023/02/25 01:31:33;;;;;;;89.70;53.70;;;;;;;0.91;100.00;100369.00;5035266;28;20050;-76
2023/02/25 01:34:03;;;;;;;91.18;55.72;;;;;;;0.91;100.00;100369.00;5034938;28;20049;-76
2023/02/25 01:36:31;;;;;;;86.22;54.13;;;;;;;1.13;100.00;100376.34;5035177;28;20108;-76
2023/02/25 01:38:58;;;;;;;88.93;53.83;;;;;;;1.11;100.00;100373.03;5035053;28;20111;-76
2023/02/25 01:41:26;;;;;;;104.43;57.35;;;;;;;1.09;100.00;100367.16;5035092;28;20495;-76
2023/02/25 01:44:12;;;;;;;109.75;62.40;;;;;;;1.12;100.00;100358.16;5034799;28;20050;-76
2023/02/25 01:46:39;;;;;;;95.47;53.97;;;;;;;1.03;100.00;100359.94;5035255;28;20053;-76
2023/02/25 01:49:13;;;;;;;85.07;53.30;;;;;;;0.74;100.00;100365.41;5035021;28;20111;-76
2023/02/25 01:51:41;;;;;;;83.82;52.70;;;;;;;0.91;100.00;100361.16;5034898;28;20128;-76
2023/02/25 01:54:10;;;;;;;90.78;56.88;;;;;;;1.08;100.00;100359.47;5034814;28;20107;-76
2023/02/25 01:56:40;;;;;;;108.72;64.50;;;;;;;0.89;100.00;100357.84;5034998;28;20497;-76
2023/02/25 01:59:08;;;;;;;99.07;60.92;;;;;;;0.86;100.00;100363.38;5034435;28;20045;-77
2023/02/25 02:01:38;;;;;;;87.88;53.83;;;;;;;0.85;100.00;100359.97;5034387;28;20045;-76
2023/02/25 02:04:07;;;;;;;91.82;59.38;;;;;;;1.00;100.00;100357.63;5034423;28;20104;-76
2023/02/25 02:06:37;;;;;;;95.20;60.90;;;;;;;0.75;100.00;100355.78;5034691;28;20045;-76
2023/02/25 02:09:06;;;;;;;96.50;50.80;;;;;;;0.41;100.00;100348.63;5034279;28;20045;-76
2023/02/25 02:11:33;;;;;;;85.70;52.95;;;;;;;0.72;100.00;100343.81;5034199;28;20049;-77
2023/02/25 02:14:04;;;;;;;84.80;51.83;;;;;;;0.79;100.00;100342.25;5034426;28;20045;-76
2023/02/25 02:16:51;;;;;;;87.72;53.30;;;;;;;0.69;100.00;100341.50;5034695;28;20466;-76
2023/02/25 02:19:31;;;;;;;84.75;55.88;;;;;;;0.80;100.00;100335.22;5034222;28;20057;-76
2023/02/25 02:22:09;;;;;;;101.80;58.30;;;;;;;0.59;100.00;100341.59;5034271;28;20045;-76
2023/02/25 02:25:15;;;;;;;103.03;55.92;;;;;;;0.74;100.00;100341.06;5034365;28;20053;-76
2023/02/25 02:28:03;;;;;;;86.68;53.92;;;;;;;0.86;100.00;100338.06;5034181;28;20111;-76
2023/02/25 02:30:50;;;;;;;99.15;58.15;;;;;;;0.91;100.00;100343.66;5034134;28;20049;-76
2023/02/25 02:33:26;;;;;;;117.18;60.28;;;;;;;0.71;100.00;100343.97;5034145;28;20400;-76
2023/02/25 02:36:01;;;;;;;88.38;53.85;;;;;;;0.64;100.00;100346.38;5034135;28;20055;-76
2023/02/25 02:38:35;;;;;;;87.45;54.55;;;;;;;0.93;100.00;100343.50;5034083;28;20067;-77
2023/02/25 02:41:14;;;;;;;134.88;79.55;;;;;;;0.72;100.00;100338.59;5034044;28;20111;-76
2023/02/25 02:43:48;;;;;;;88.78;52.40;;;;;;;0.79;100.00;100328.38;5033969;28;20474;-76
2023/02/25 02:46:20;;;;;;;94.65;53.38;;;;;;;0.60;100.00;100327.53;5033539;28;20100;-76
2023/02/25 02:48:53;;;;;;;96.43;58.03;;;;;;;0.57;100.00;100319.19;5033617;28;20096;-77
2023/02/25 02:51:26;;;;;;;92.13;57.22;;;;;;;0.62;100.00;100330.03;5033501;28;20057;-77
2023/02/25 02:53:56;;;;;;;103.20;60.05;;;;;;;0.57;100.00;100327.84;5033345;28;20132;-76
2023/02/25 02:56:26;;;;;;;129.30;66.70;;;;;;;0.59;100.00;100325.09;5033538;28;20045;-77
2023/02/25 02:58:59;;;;;;;197.30;97.75;;;;;;;0.65;100.00;100319.25;5033656;28;20049;-77
2023/02/25 03:01:29;;;;;;;232.27;102.50;;;;;;;0.54;100.00;100319.50;5033577;28;20057;-76
2023/02/25 03:04:02;;;;;;;112.50;62.22;;;;;;;0.58;100.00;100303.38;5033260;28;20482;-77
2023/02/25 03:06:33;;;;;;;96.03;55.58;;;;;;;0.55;100.00;100313.31;5033536;28;20111;-76
2023/02/25 03:09:06;;;;;;;115.93;65.07;;;;;;;0.63;100.00;100314.19;5033114;28;20062;-77
2023/02/25 03:11:33;;;;;;;86.72;53.35;;;;;;;0.50;100.00;100318.16;5033388;28;20049;-77
2023/02/25 03:14:00;;;;;;;94.18;54.28;;;;;;;0.46;100.00;100312.41;5032333;28;20590;-76
2023/02/25 03:16:34;;;;;;;76.55;47.47;;;;;;;0.55;100.00;100323.75;5033524;28;20050;-77
2023/02/25 03:19:07;;;;;;;71.35;45.28;;;;;;;0.62;100.00;100323.00;5032996;28;20072;-76
2023/02/25 03:21:40;;;;;;;70.57;48.08;;;;;;;0.57;100.00;100317.38;5033178;28;20499;-76
2023/02/25 03:24:10;;;;;;;65.45;43.83;;;;;;;0.48;100.00;100313.06;5033191;28;20045;-76
2023/02/25 03:26:41;;;;;;;65.75;46.05;;;;;;;0.42;100.00;100305.81;5032907;28;20107;-77
2023/02/25 03:29:14;;;;;;;67.15;46.83;;;;;;;0.55;100.00;100308.09;5033083;28;20053;-76
2023/02/25 03:31:45;;;;;;;72.47;49.45;;;;;;;0.56;100.00;100310.53;5033025;28;20053;-77
2023/02/25 03:34:18;;;;;;;72.68;48.85;;;;;;;0.72;100.00;100309.84;5032486;28;20045;-77
2023/02/25 03:36:46;;;;;;;;;;;;;;;0.57;100.00;100314.78;5033078;28;20499;-76
2023/02/25 03:39:18;;;;;;;67.00;46.67;;;;;;;0.47;100.00;100327.13;5032930;28;19921;-76
2023/02/25 03:41:50;;;;;;;73.82;48.03;;;;;;;0.44;100.00;100320.38;5032645;28;20045;-76
2023/02/25 03:44:21;;;;;;;78.15;48.83;;;;;;;0.59;100.00;100318.06;5032789;28;20053;-76
2023/02/25 03:46:48;;;;;;;98.75;58.75;;;;;;;0.52;100.00;100308.38;5032554;28;20108;-76
2023/02/25 03:49:21;;;;;;;73.43;50.05;;;;;;;0.34;100.00;100303.16;5032775;28;20050;-76
2023/02/25 03:51:49;;;;;;;69.82;45.60;;;;;;;0.40;100.00;100295.53;5032725;28;20049;-76
2023/02/25 03:54:16;;;;;;;66.70;44.80;;;;;;;0.31;100.00;100303.47;5032656;28;20099;-76
2023/02/25 03:56:46;;;;;;;66.82;40.78;;;;;;;0.25;100.00;100288.38;5032662;28;20099;-76
2023/02/25 03:59:13;;;;;;;67.15;42.38;;;;;;;0.24;100.00;100287.53;5050309;28;20500;-76
2023/02/25 04:01:42;;;;;;;72.50;45.95;;;;;;;0.09;100.00;100289.03;5052541;28;20053;-76
2023/02/25 04:04:09;;;;;;;63.50;39.95;;;;;;;-0.01;100.00;100289.91;5052506;28;20106;-76
2023/02/25 04:06:37;;;;;;;71.20;37.72;;;;;;;-0.02;100.00;100290.91;5052609;28;20049;-76
2023/02/25 04:09:05;;;;;;;60.38;36.83;;;;;;;0.13;100.00;100278.16;5052121;28;20061;-76
2023/02/25 04:11:32;;;;;;;73.13;42.65;;;;;;;0.06;100.00;100287.56;5052126;28;20048;-76
2023/02/25 04:13:58;;;;;;;53.75;35.60;;;;;;;0.29;100.00;100287.09;5052344;28;20045;-76
2023/02/25 04:16:25;;;;;;;57.33;35.38;;;;;;;0.28;100.00;100280.25;5052085;28;20045;-76
2023/02/25 04:18:52;;;;;;;66.75;41.92;;;;;;;0.28;100.00;100275.03;5052096;28;20498;-76
2023/02/25 04:21:27;;;;;;;64.63;40.25;;;;;;;0.26;100.00;100276.97;5052270;28;20099;-76
2023/02/25 04:23:57;;;;;;;57.05;36.70;;;;;;;0.12;100.00;100280.91;5052992;28;20045;-76
2023/02/25 04:26:24;;;;;;;49.78;34.28;;;;;;;0.21;100.00;100259.09;5056132;28;20569;-76
2023/02/25 04:28:50;;;;;;;67.28;34.95;;;;;;;0.04;100.00;100262.56;5056499;28;20123;-76
2023/02/25 04:31:17;;;;;;;64.65;38.08;;;;;;;0.10;100.00;100264.56;5056425;28;20107;-76
2023/02/25 04:33:48;;;;;;;59.08;36.67;;;;;;;0.13;100.00;100257.25;5056066;28;20492;-76
2023/02/25 04:36:30;;;;;;;54.75;37.13;;;;;;;0.11;100.00;100263.59;5056302;28;20049;-76
2023/02/25 04:39:00;;;;;;;58.78;37.90;;;;;;;0.16;100.00;100259.56;5056248;28;20527;-76
2023/02/25 04:41:29;;;;;;;60.67;36.67;;;;;;;0.22;100.00;100255.53;5056426;28;20468;-76
2023/02/25 04:43:56;;;;;;;66.05;40.97;;;;;;;0.06;100.00;100250.16;5056419;28;20053;-76
2023/02/25 04:46:23;;;;;;;67.40;40.95;;;;;;;0.00;100.00;100256.81;5055842;28;20110;-76
2023/02/25 04:48:50;;;;;;;69.40;38.50;;;;;;;0.01;100.00;100250.63;5056068;28;20052;-76
2023/02/25 04:51:17;;;;;;;59.92;39.50;;;;;;;0.21;100.00;100241.66;5055732;28;20048;-77
2023/02/25 04:53:45;;;;;;;61.83;41.10;;;;;;;0.11;100.00;100243.50;5055524;28;20100;-76
2023/02/25 04:56:13;;;;;;;72.18;42.95;;;;;;;0.04;100.00;100237.25;5055850;28;20085;-76
2023/02/25 04:58:40;;;;;;;76.93;42.25;;;;;;;0.19;100.00;100227.13;5055876;28;20054;-76
2023/02/25 05:01:08;;;;;;;66.88;42.70;;;;;;;0.30;100.00;100237.31;5055575;28;20510;-76
2023/02/25 05:03:36;;;;;;;70.93;43.25;;;;;;;0.00;100.00;100230.72;5055776;28;20083;-76
2023/02/25 05:06:04;;;;;;;101.35;53.35;;;;;;;0.15;100.00;100231.81;5055730;28;20104;-76
2023/02/25 05:08:31;;;;;;;75.80;45.53;;;;;;;0.08;100.00;100235.97;5054271;28;20102;-76
2023/02/25 05:10:59;;;;;;;85.10;48.13;;;;;;;0.31;100.00;100241.56;5036895;28;20052;-76
2023/02/25 05:13:27;;;;;;;70.28;43.28;;;;;;;0.38;100.00;100232.16;5042416;28;20107;-76
2023/02/25 05:16:04;;;;;;;73.50;37.50;;;;;;;0.40;100.00;100232.84;5055488;28;20049;-76
2023/02/25 05:18:31;;;;;;;64.60;41.50;;;;;;;0.33;100.00;100229.16;5054439;28;20049;-77
2023/02/25 05:20:59;;;;;;;74.70;37.63;;;;;;;-0.07;100.00;100235.69;5054385;28;20477;-76
2023/02/25 05:23:26;;;;;;;80.68;45.40;;;;;;;0.17;100.00;100236.88;5055442;28;20533;-76
2023/02/25 05:25:52;;;;;;;68.75;39.40;;;;;;;0.22;100.00;100232.03;5055634;28;20427;-76
2023/02/25 05:28:19;;;;;;;73.03;43.20;;;;;;;0.29;100.00;100240.09;5055572;28;20045;-76
2023/02/25 05:30:47;;;;;;;71.50;43.47;;;;;;;0.48;100.00;100242.50;5055016;28;20102;-76
2023/02/25 05:33:14;;;;;;;313.60;116.90;;;;;;;0.56;100.00;100239.16;5054833;28;20111;-76
2023/02/25 05:35:41;;;;;;;71.80;41.88;;;;;;;0.52;100.00;100245.66;5054270;28;20060;-76
2023/02/25 05:38:07;;;;;;;74.13;38.40;;;;;;;0.52;100.00;100243.06;5055132;28;20465;-76
2023/02/25 05:40:35;;;;;;;91.65;49.58;;;;;;;0.63;100.00;100240.97;5055056;28;20102;-76
2023/02/25 05:43:01;;;;;;;64.18;39.78;;;;;;;0.61;100.00;100237.72;5054869;28;20057;-76
2023/02/25 05:45:28;;;;;;;63.80;39.92;;;;;;;0.58;100.00;100234.59;5054590;28;20099;-76
2023/02/25 05:47:56;;;;;;;75.40;46.10;;;;;;;0.73;100.00;100240.91;5054594;28;20053;-76
2023/02/25 05:50:23;;;;;;;82.65;48.40;;;;;;;0.46;100.00;100244.47;5054582;28;20045;-77
2023/02/25 05:52:49;;;;;;;73.30;45.70;;;;;;;0.46;100.00;100241.88;5054856;28;20052;-76
2023/02/25 05:55:16;;;;;;;62.42;41.55;;;;;;;0.44;100.00;100225.50;5054699;28;20403;-76
2023/02/25 05:57:43;;;;;;;69.32;40.15;;;;;;;0.15;100.00;100237.03;5054553;28;20048;-76
2023/02/25 06:00:13;;;;;;;76.05;43.72;;;;;;;0.38;100.00;100220.88;5054463;28;20110;-76
2023/02/25 06:02:40;;;;;;;83.35;47.67;;;;;;;0.67;100.00;100236.28;5054725;28;20056;-76
2023/02/25 06:05:09;;;;;;;75.05;44.42;;;;;;;0.79;100.00;100229.84;5054336;28;20045;-76
2023/02/25 06:07:36;;;;;;;69.10;44.10;;;;;;;0.80;100.00;100225.41;5054415;28;20060;-76
2023/02/25 06:10:03;;;;;;;106.45;59.00;;;;;;;0.86;100.00;100230.03;5054138;28;20174;-77
2023/02/25 06:12:31;;;;;;;71.95;46.95;;;;;;;0.78;100.00;100228.19;5054665;28;20106;-76
2023/02/25 06:14:58;;;;;;;90.35;54.28;;;;;;;0.74;100.00;100233.88;5054405;28;20046;-76
2023/02/25 06:17:25;;;;;;;88.45;52.80;;;;;;;0.71;100.00;100234.19;5054571;28;20403;-76
2023/02/25 06:19:52;;;;;;;75.60;47.65;;;;;;;0.98;100.00;100238.44;5054359;28;20098;-76
2023/02/25 06:22:21;;;;;;;69.93;45.55;;;;;;;0.90;100.00;100234.78;5054314;28;20102;-77
2023/02/25 06:24:48;;;;;;;70.53;48.55;;;;;;;1.16;100.00;100223.50;5054346;28;20048;-77
2023/02/25 06:27:16;;;;;;;89.15;56.63;;;;;;;1.62;100.00;100231.81;5053937;28;20049;-77
2023/02/25 06:29:42;;;;;;;88.65;54.53;;;;;;;1.54;100.00;100229.19;5053884;28;20057;-77
2023/02/25 06:32:10;;;;;;;88.63;54.67;;;;;;;1.93;100.00;100228.63;5054113;28;20106;-77
2023/02/25 06:34:36;;;;;;;77.28;51.60;;;;;;;2.10;100.00;100225.03;5053826;28;20102;-77
2023/02/25 06:37:03;;;;;;;79.15;51.65;;;;;;;1.91;100.00;100222.75;5053732;28;20583;-77
2023/02/25 06:39:31;;;;;;;71.95;49.22;;;;;;;2.38;100.00;100227.34;5053980;28;20106;-77
2023/02/25 06:41:58;;;;;;;71.80;45.67;;;;;;;2.63;100.00;100225.50;5054210;28;20130;-77
2023/02/25 06:44:28;;;;;;;72.00;43.72;;;;;;;2.45;100.00;100223.91;5053928;28;20098;-78
2023/02/25 06:46:55;;;;;;;67.78;45.78;;;;;;;2.79;100.00;100204.50;5053210;28;20490;-77
2023/02/25 06:49:22;;;;;;;59.13;41.85;;;;;;;2.71;100.00;100197.47;5052801;28;20045;-77
2023/02/25 06:51:49;;;;;;;56.72;42.10;;;;;;;2.80;100.00;100198.28;5053757;28;20053;-77
2023/02/25 06:54:16;;;;;;;73.47;49.28;;;;;;;3.10;100.00;100199.31;5053318;28;20494;-77
2023/02/25 06:56:44;;;;;;;65.07;45.30;;;;;;;3.14;100.00;100191.94;5053606;28;20045;-77
2023/02/25 06:59:11;;;;;;;64.30;45.13;;;;;;;3.28;100.00;100183.34;5053501;28;20110;-77
2023/02/25 07:01:38;;;;;;;57.35;45.15;;;;;;;3.87;100.00;100190.72;5053312;28;20053;-77
2023/02/25 07:04:05;;;;;;;49.05;42.55;;;;;;;3.98;100.00;100178.97;5053527;28;20107;-77
2023/02/25 07:06:31;;;;;;;48.92;40.35;;;;;;;4.54;100.00;100180.31;5053156;28;20102;-77
2023/02/25 07:08:58;;;;;;;47.30;41.35;;;;;;;5.21;100.00;100171.50;5053239;28;20134;-77
2023/02/25 07:11:33;;;;;;;47.53;42.33;;;;;;;4.94;100.00;100172.97;5053330;28;20049;-77
2023/02/25 07:14:01;;;;;;;49.22;42.65;;;;;;;5.76;100.00;100153.44;5052937;28;20103;-77
2023/02/25 07:16:29;;;;;;;51.75;43.13;;;;;;;5.54;100.00;100155.25;5053290;28;20049;-77
2023/02/25 07:18:56;;;;;;;55.17;46.22;;;;;;;5.84;100.00;100142.78;5053260;28;20048;-77
2023/02/25 07:21:28;;;;;;;53.42;46.75;;;;;;;6.24;100.00;100132.59;5052969;28;20103;-77
2023/02/25 07:23:55;;;;;;;54.30;45.50;;;;;;;6.50;100.00;100145.16;5053301;28;20135;-77
2023/02/25 07:26:26;;;;;;;51.33;45.53;;;;;;;7.86;100.00;100145.25;5053250;28;20053;-77
2023/02/25 07:28:54;;;;;;;50.43;45.17;;;;;;;8.07;100.00;100141.63;5052957;28;20044;-77
2023/02/25 07:31:22;;;;;;;49.72;43.38;;;;;;;8.17;100.00;100130.63;5053126;28;20345;-77
2023/02/25 07:33:49;;;;;;;52.40;46.38;;;;;;;8.36;100.00;100127.16;5053285;28;20045;-77
2023/02/25 07:36:16;;;;;;;50.03;43.67;;;;;;;8.88;100.00;100127.28;5053084;28;20115;-77
2023/02/25 07:38:44;;;;;;;49.25;43.90;;;;;;;9.17;100.00;100126.75;5053363;28;20056;-77
2023/02/25 07:41:13;;;;;;;49.13;41.97;;;;;;;9.39;100.00;100118.50;5053289;28;20506;-77
2023/02/25 07:43:40;;;;;;;48.03;42.83;;;;;;;9.91;100.00;100115.72;5053686;28;20110;-77
2023/02/25 07:46:07;;;;;;;49.03;43.60;;;;;;;10.63;100.00;100103.66;5053847;28;20500;-77
2023/02/25 07:48:35;;;;;;;48.78;43.58;;;;;;;10.97;100.00;100106.72;5053469;28;20049;-77
2023/02/25 07:51:05;;;;;;;46.90;42.03;;;;;;;10.58;100.00;100098.16;5053879;28;20513;-78
2023/02/25 07:53:32;;;;;;;41.63;37.17;;;;;;;10.81;100.00;100088.75;5053989;28;20059;-79
2023/02/25 07:55:59;;;;;;;44.38;39.45;;;;;;;10.65;100.00;100092.78;5054242;28;20049;-79
2023/02/25 07:58:27;;;;;;;44.17;39.40;;;;;;;11.80;100.00;100087.38;5053538;28;20049;-79
2023/02/25 08:00:54;;;;;;;44.33;39.55;;;;;;;11.40;100.00;100084.47;5053463;28;20478;-78
2023/02/25 08:03:21;;;;;;;45.25;40.33;;;;;;;10.97;100.00;100080.16;5053596;28;20052;-77
2023/02/25 08:05:53;;;;;;;49.67;41.38;;;;;;;11.74;100.00;100082.97;5053317;28;20075;-77
2023/02/25 08:08:20;;;;;;;47.13;41.63;;;;;;;12.55;100.00;100076.03;5053869;28;20056;-79
2023/02/25 08:10:47;;;;;;;44.42;39.72;;;;;;;12.49;100.00;100068.19;5054420;28;20056;-79
2023/02/25 08:13:14;;;;;;;45.03;40.33;;;;;;;12.82;100.00;100070.19;5054091;28;20049;-79
2023/02/25 08:15:42;;;;;;;44.30;39.65;;;;;;;13.38;100.00;100068.63;5054366;28;20518;-79
2023/02/25 08:18:09;;;;;;;43.50;38.90;;;;;;;13.63;100.00;100057.56;5054320;28;20099;-79
2023/02/25 08:20:36;;;;;;;49.17;40.75;;;;;;;13.45;100.00;100053.25;5054315;28;20080;-79
2023/02/25 08:23:05;;;;;;;47.92;42.22;;;;;;;14.15;100.00;100054.63;5054386;28;20049;-79
2023/02/25 08:25:32;;;;;;;42.50;38.20;;;;;;;14.58;100.00;100054.94;5054797;28;20056;-78
2023/02/25 08:27:58;;;;;;;42.75;38.08;;;;;;;15.19;100.00;100044.97;5055075;28;20082;-79
2023/02/25 08:30:26;;;;;;;40.10;36.00;;;;;;;15.59;100.00;100043.72;5054360;28;20122;-80
2023/02/25 08:32:53;;;;;;;41.53;37.53;;;;;;;15.90;100.00;100039.44;5054884;28;20041;-80
2023/02/25 08:35:20;;;;;;;40.97;37.00;;;;;;;16.59;100.00;100025.06;5055347;28;20481;-79
2023/02/25 08:37:46;;;;;;;40.30;36.00;;;;;;;15.66;100.00;100032.78;5054587;28;20469;-79
2023/02/25 08:40:15;;;;;;;42.10;37.90;;;;;;;17.23;100.00;100025.78;5054869;28;20049;-80
2023/02/25 08:42:41;;;;;;;42.85;38.55;;;;;;;17.70;100.00;100027.41;5054577;28;20291;-80
2023/02/25 08:45:09;;;;;;;43.58;39.10;;;;;;;17.68;100.00;100024.19;5054586;28;20122;-80
2023/02/25 08:47:36;;;;;;;43.40;39.05;;;;;;;17.64;100.00;100023.94;5054130;28;20044;-80
2023/02/25 08:50:04;;;;;;;40.50;36.63;;;;;;;16.78;100.00;100025.41;5054693;28;20061;-80
2023/02/25 08:52:32;;;;;;;44.72;40.25;;;;;;;18.65;100.00;100022.09;5054265;28;20045;-80
2023/02/25 08:54:59;;;;;;;48.15;40.92;;;;;;;18.40;100.00;100019.53;5054277;28;20441;-80
2023/02/25 08:57:27;;;;;;;40.17;36.45;;;;;;;17.48;100.00;100025.81;5054224;28;20053;-80
2023/02/25 08:59:54;;;;;;;39.25;32.97;;;;;;;15.94;100.00;100026.31;5054052;28;20103;-80
2023/02/25 09:02:21;;;;;;;40.00;35.67;;;;;;;16.71;100.00;100016.81;5054128;28;20572;-80
2023/02/25 09:04:48;;;;;;;40.70;36.42;;;;;;;17.32;100.00;100013.47;5055860;28;20072;-78
2023/02/25 09:07:15;;;;;;;55.25;40.25;;;;;;;17.40;100.00;100007.56;5054114;28;20053;-79
2023/02/25 09:09:42;;;;;;;56.15;41.22;;;;;;;15.36;100.00;100007.38;5053580;28;20139;-80
2023/02/25 09:12:09;;;;;;;40.35;33.83;;;;;;;16.14;100.00;100015.75;5056613;28;20053;-79
2023/02/25 09:14:37;;;;;;;47.55;37.60;;;;;;;13.95;100.00;100007.09;5057440;28;20167;-79
2023/02/25 09:17:06;;;;;;;58.88;40.78;;;;;;;13.97;100.00;99999.63;5058535;28;20114;-79
2023/02/25 09:19:33;;;;;;;64.32;43.50;;;;;;;15.53;100.00;100004.59;5057572;28;20491;-79
2023/02/25 09:22:00;;;;;;;32.83;26.58;;;;;;;17.91;100.00;99982.56;5057625;28;20449;-79
2023/02/25 09:24:28;;;;;;;36.20;28.90;;;;;;;16.82;100.00;99988.16;5058098;28;20052;-79
2023/02/25 09:26:55;;;;;;;33.25;25.33;;;;;;;17.65;89.54;99973.72;5057624;28;20144;-79
2023/02/25 09:29:22;;;;;;;29.75;25.48;;;;;;;17.16;90.86;99983.94;5057574;28;20131;-79
2023/02/25 09:31:50;;;;;;;32.58;25.00;;;;;;;17.30;90.65;99975.34;5056756;28;20052;-80
2023/02/25 09:34:17;;;;;;;30.67;26.08;;;;;;;16.81;91.08;99975.81;5057610;28;20126;-79
2023/02/25 09:36:44;;;;;;;37.85;26.80;;;;;;;17.34;83.65;99973.75;5057110;28;20567;-79
2023/02/25 09:39:10;;;;;;;42.30;25.10;;;;;;;16.99;80.26;99974.53;5057368;28;20473;-79
2023/02/25 09:41:44;;;;;;;31.45;24.70;;;;;;;16.17;80.35;99967.00;5057552;28;20556;-79
2023/02/25 09:44:13;;;;;;;32.97;23.67;;;;;;;16.07;83.71;99966.97;5057550;28;20068;-78
2023/02/25 09:46:46;;;;;;;38.03;26.05;;;;;;;16.35;85.21;99967.63;5057447;28;20049;-79
2023/02/25 09:49:18;;;;;;;;;;;;;;;16.24;85.47;99966.75;5057733;28;20057;-79
2023/02/25 09:51:49;;;;;;;31.10;24.77;;;;;;;16.16;80.08;99951.19;5056838;28;20019;-79
2023/02/25 09:54:29;;;;;;;36.28;25.48;;;;;;;15.42;86.97;99963.56;5057179;28;20045;-79
2023/02/25 09:56:59;;;;;;;27.90;24.92;;;;;;;14.86;88.28;99966.56;5056692;28;20056;-79
2023/02/25 09:59:28;;;;;;;35.80;24.42;;;;;;;15.07;100.00;99954.19;5056893;28;20136;-78
2023/02/25 10:01:58;;;;;;;36.10;25.23;;;;;;;14.62;100.00;99950.00;5056921;28;20057;-78
2023/02/25 10:04:33;;;;;;;24.05;21.42;;;;;;;14.80;100.00;99948.84;5056918;28;20052;-79
2023/02/25 10:07:08;;;;;;;39.65;26.35;;;;;;;14.36;100.00;99946.19;5056295;28;20045;-79
2023/02/25 10:09:44;;;;;;;32.25;25.58;;;;;;;14.70;100.00;99950.59;5056406;28;20050;-79
2023/02/25 10:12:23;;;;;;;40.95;25.77;;;;;;;14.58;100.00;99940.88;5056518;28;20052;-79
2023/02/25 10:15:12;;;;;;;40.20;29.77;;;;;;;13.95;100.00;99939.56;5056879;28;20056;-79
2023/02/25 10:17:45;;;;;;;40.00;29.08;;;;;;;14.05;100.00;99945.00;5056577;28;20045;-79
2023/02/25 10:20:41;;;;;;;34.10;28.40;;;;;;;13.38;100.00;99950.47;5056805;28;20110;-79
2023/02/25 10:23:21;;;;;;;31.67;28.25;;;;;;;11.60;100.00;99945.91;5043213;28;20077;-79
2023/02/25 10:25:56;;;;;;;35.17;29.20;;;;;;;11.88;100.00;99948.69;5055924;28;20123;-79
2023/02/25 10:28:23;;;;;;;38.83;33.70;;;;;;;13.00;100.00;99947.41;5056520;28;20122;-79
2023/02/25 10:30:56;;;;;;;33.67;29.88;;;;;;;12.61;100.00;99943.75;5056283;28;20045;-79
2023/02/25 10:33:24;;;;;;;;;;;;;;;12.31;100.00;99926.13;5056702;28;20434;-79
2023/02/25 10:35:57;;;;;;;46.10;36.95;;;;;;;11.79;100.00;99914.66;5056068;28;19920;-78
2023/02/25 10:38:24;;;;;;;87.43;46.70;;;;;;;11.98;100.00;99896.72;5056338;28;20099;-79
2023/02/25 10:40:54;;;;;;;68.93;37.03;;;;;;;11.39;100.00;99876.28;5056336;28;20053;-79
2023/02/25 10:43:23;;;;;;;78.13;39.35;;;;;;;11.68;100.00;99876.41;5056011;28;20071;-78
2023/02/25 10:45:56;;;;;;;52.33;38.40;;;;;;;12.17;100.00;99876.91;5055753;28;20556;-79
2023/02/25 10:48:24;;;;;;;48.53;42.80;;;;;;;12.89;100.00;99881.66;5056388;28;20049;-79
2023/02/25 10:51:11;;;;;;;45.53;39.67;;;;;;;12.31;100.00;99880.88;5056314;28;20060;-79
2023/02/25 10:53:39;;;;;;;50.60;36.80;;;;;;;12.21;100.00;99899.31;5055517;28;20049;-79
2023/02/25 10:56:06;;;;;;;43.13;27.08;;;;;;;11.29;100.00;99889.34;5055719;28;20045;-79
2023/02/25 10:58:40;;;;;;;44.53;30.02;;;;;;;11.89;100.00;99883.78;5055724;28;20057;-79
2023/02/25 11:01:13;;;;;;;59.83;35.67;;;;;;;11.99;100.00;99877.88;5055380;28;20609;-79
2023/02/25 11:03:59;;;;;;;56.47;46.28;;;;;;;12.27;100.00;99866.44;5055788;28;20140;-79
2023/02/25 11:06:29;;;;;;;53.08;47.53;;;;;;;12.26;100.00;99856.84;5055848;28;20049;-79
2023/02/25 11:08:58;;;;;;;50.33;45.17;;;;;;;12.00;100.00;99846.72;5055770;28;20122;-79
2023/02/25 11:11:27;;;;;;;54.70;43.28;;;;;;;12.36;100.00;99848.22;5055521;28;20044;-79
2023/02/25 11:13:59;;;;;;;55.38;41.33;;;;;;;12.42;100.00;99838.47;5055527;28;20049;-79
2023/02/25 11:16:27;;;;;;;61.67;45.15;;;;;;;12.55;100.00;99832.84;5055620;28;20055;-79
2023/02/25 11:18:57;;;;;;;59.88;47.30;;;;;;;12.55;100.00;99841.63;5055578;28;20053;-79